Pagrindinis puslapis
METAR-TAF:

METAR-TAF

Oro uostai :

Yurimaguas, Peru

platuma: 05-54S, ilguma: 076-05W, Aukštis: 179 m

Dabartinis oras

Ataskaita buvo paskelbta 7 valandos ir 25 minutes, ne 23:00 UTC
Ramus vėjas
Temperatūra 30°C
Drėgmė 66%
Slėgis 1013 hPa
Matomumas 10 km arba daugiau
Mažai debesys ne aukštis 2000 ft

METAR: SPMS 062300Z 00000KT 9999 FEW020 30/23 Q1013 RMK BIRD HAZARD RWY 09/27 PP000

Laikas: 01:25 (06:25 UTC)

Prognozė

Ataskaita buvo paskelbta 13 valandos ir 25 minutes, ne 17:00 UTC
Prognozė galioja nuo 06 metu 18 UTC su 07 metu 18 UTC
Vėjas 5 kt iš Rytų/Pietryčių
Matomumas 10 km arba daugiau
Išsisklaidę debesys ne aukštis 1500 ft
Išsisklaidę debesys ne aukštis 10000 ft
Laikinai
nuo 07 metu 12 UTC su 07 metu 14 UTC
Matomumas: 8000 m
Išsisklaidę debesys ne aukštis 1000 ft
Su prošvaistėmis ne aukštis 8000 ft

TAF: SPMS 061700Z 0618/0718 12005KT 9999 SCT015 SCT100 TX31/0620Z TN23/0711Z TEMPO 0712/0714 8000 SCT010 BKN080

Orai ataskaitas ir orų prognozės (METAR, TAF).

turimą stotys yra geltonos ir raudonos taškus žemėlapyje.

Perkelti pele per norėdami pamatyti stoties vardą.

Tada spustelėkite, norėdami matyti oro stebėjimo ir prognozės.

Norėdami pakeisti žemėlapį: spustelėkite ant žalios mygtukų su juodo kryžiaus žemyn,; žalią mygtuką su brūkšneliu, jei norite nutolinti; arba žalių rodyklių gretimoms žemėlapius.


METAR-TAF: